createdAt,value
2022-12-25T00:01:13.503Z,95605.28
2022-12-25T00:03:11.834Z,95607.09
2022-12-25T00:05:10.579Z,95608.78
2022-12-25T00:07:08.720Z,95608.28
2022-12-25T00:09:07.094Z,95611.66
2022-12-25T00:11:08.820Z,95618.34
2022-12-25T00:13:06.969Z,95610.09
2022-12-25T00:15:06.164Z,95620.38
2022-12-25T00:17:04.449Z,95621.38
2022-12-25T00:19:01.575Z,95623.41
2022-12-25T00:21:01.631Z,95621.06
2022-12-25T00:22:59.689Z,95628.03
2022-12-25T00:24:57.814Z,95619.56
2022-12-25T00:26:57.377Z,95614.91
2022-12-25T00:28:56.517Z,95623.50
2022-12-25T00:30:54.752Z,95625.44
2022-12-25T00:32:52.848Z,95622.72
2022-12-25T00:34:51.014Z,95626.09
2022-12-25T00:36:51.563Z,95629.06
2022-12-25T00:38:49.685Z,95642.28
2022-12-25T00:40:47.956Z,95644.38
2022-12-25T00:42:49.259Z,95643.78
2022-12-25T00:44:47.400Z,95643.13
2022-12-25T00:46:45.758Z,95642.09
2022-12-25T00:48:45.263Z,95654.94
2022-12-25T00:50:43.518Z,95643.84
2022-12-25T00:52:41.676Z,95652.88
2022-12-25T00:54:39.886Z,95653.13
2022-12-25T00:56:38.187Z,95648.56
2022-12-25T00:58:37.697Z,95656.03
2022-12-25T01:00:35.980Z,95653.75
2022-12-25T01:02:34.221Z,95649.16
2022-12-25T01:04:32.398Z,95640.69
2022-12-25T01:06:31.239Z,95641.19
2022-12-25T01:08:31.864Z,95642.75
2022-12-25T01:10:29.069Z,95647.00
2022-12-25T01:12:26.189Z,95642.34
2022-12-25T01:14:25.719Z,95647.31
2022-12-25T01:16:24.646Z,95643.44
2022-12-25T01:18:24.283Z,95650.69
2022-12-25T01:20:22.771Z,95652.81
2022-12-25T01:22:21.076Z,95659.94
2022-12-25T01:24:19.195Z,95649.13
2022-12-25T01:26:19.186Z,95647.59
2022-12-25T01:28:17.441Z,95649.50
2022-12-25T01:30:17.070Z,95646.06
2022-12-25T01:32:15.324Z,95644.72
2022-12-25T01:34:13.459Z,95647.03
2022-12-25T01:36:16.262Z,95645.31
2022-12-25T01:38:14.605Z,95649.03
2022-12-25T01:40:13.089Z,95649.97
2022-12-25T01:42:17.048Z,95647.25
2022-12-25T01:44:48.540Z,95655.41
2022-12-25T01:46:48.603Z,95650.09
2022-12-25T01:48:46.944Z,95647.75
2022-12-25T01:50:48.755Z,95650.47
2022-12-25T01:52:48.836Z,95650.78
2022-12-25T01:54:51.573Z,95650.28
2022-12-25T01:56:52.631Z,95647.00
2022-12-25T01:58:51.036Z,95646.94
2022-12-25T02:00:49.462Z,95652.81
2022-12-25T02:02:50.004Z,95653.81
2022-12-25T02:04:53.439Z,95655.81
2022-12-25T02:06:53.455Z,95660.72
2022-12-25T02:08:52.139Z,95658.38
2022-12-25T02:10:50.217Z,95663.47
2022-12-25T02:12:50.055Z,95660.31
2022-12-25T02:14:50.439Z,95662.22
2022-12-25T02:16:57.782Z,95657.97
2022-12-25T02:19:04.390Z,95654.91
2022-12-25T02:21:29.590Z,95656.09
2022-12-25T02:23:39.297Z,95656.41
2022-12-25T02:25:52.067Z,95663.41
2022-12-25T02:28:11.900Z,95655.75
2022-12-25T02:30:11.848Z,95653.03
2022-12-25T02:32:19.066Z,95654.13
2022-12-25T02:34:21.690Z,95652.88
2022-12-25T02:36:25.391Z,95651.38
2022-12-25T02:38:32.700Z,95652.47
2022-12-25T02:40:35.692Z,95647.34
2022-12-25T02:43:05.689Z,95655.16
2022-12-25T02:45:24.144Z,95651.63
2022-12-25T02:47:40.757Z,95649.19
2022-12-25T02:49:58.797Z,95652.47
2022-12-25T02:52:20.381Z,95663.03
2022-12-25T02:54:41.941Z,95664.97
2022-12-25T02:57:08.045Z,95658.50
2022-12-25T02:59:22.348Z,95663.03
2022-12-25T03:01:42.511Z,95662.56
2022-12-25T03:03:59.734Z,95668.25
2022-12-25T03:06:20.241Z,95665.75
2022-12-25T03:08:23.945Z,95678.88
2022-12-25T03:10:40.642Z,95671.44
2022-12-25T03:12:47.455Z,95675.41
2022-12-25T03:15:03.566Z,95686.13
2022-12-25T03:17:02.310Z,95686.59
2022-12-25T03:19:21.313Z,95692.38
2022-12-25T03:21:37.159Z,95686.72
2022-12-25T03:23:53.966Z,95694.31
2022-12-25T03:26:09.909Z,95699.34
2022-12-25T03:28:08.460Z,95701.56
2022-12-25T03:30:25.714Z,95689.78
2022-12-25T03:32:40.508Z,95686.44
2022-12-25T03:35:06.526Z,95686.94
2022-12-25T03:37:42.239Z,95687.75
2022-12-25T03:40:06.488Z,95685.75
2022-12-25T03:42:25.139Z,95693.94
2022-12-25T03:44:48.440Z,95696.50
2022-12-25T03:47:06.362Z,95692.66
2022-12-25T03:49:30.361Z,95705.72
2022-12-25T03:51:51.419Z,95701.41
2022-12-25T03:54:12.930Z,95707.63
2022-12-25T03:56:29.350Z,95710.94
2022-12-25T03:58:46.276Z,95715.63
2022-12-25T04:01:10.398Z,95716.88
2022-12-25T04:03:26.233Z,95716.03
2022-12-25T04:05:43.706Z,95715.50
2022-12-25T04:07:59.473Z,95722.63
2022-12-25T04:10:15.064Z,95721.00
2022-12-25T04:12:30.741Z,95720.94
2022-12-25T04:14:46.166Z,95731.56
2022-12-25T04:17:01.521Z,95728.22
2022-12-25T04:19:16.908Z,95726.59
2022-12-25T04:21:34.086Z,95729.09
2022-12-25T04:23:49.955Z,95739.50
2022-12-25T04:26:05.271Z,95738.91
2022-12-25T04:28:22.240Z,95745.34
2022-12-25T04:30:37.643Z,95755.13
2022-12-25T04:32:55.303Z,95749.94
2022-12-25T04:35:11.054Z,95746.84
2022-12-25T04:37:10.632Z,95754.22
2022-12-25T04:39:09.855Z,95752.75
2022-12-25T04:41:10.269Z,95752.06
2022-12-25T04:43:08.581Z,95754.81
2022-12-25T04:45:07.739Z,95765.22
2022-12-25T04:47:11.106Z,95773.72
2022-12-25T04:49:10.135Z,95767.72
2022-12-25T04:51:16.197Z,95762.91
2022-12-25T04:53:16.700Z,95762.88
2022-12-25T04:55:17.607Z,95771.81
2022-12-25T04:57:15.882Z,95767.16
2022-12-25T04:59:14.254Z,95766.06
2022-12-25T05:01:13.039Z,95770.16
2022-12-25T05:03:11.163Z,95774.44
2022-12-25T05:05:09.817Z,95770.16
2022-12-25T05:07:08.129Z,95769.25
2022-12-25T05:09:07.826Z,95775.13
2022-12-25T05:11:10.714Z,95769.50
2022-12-25T05:13:09.198Z,95768.16
2022-12-25T05:15:08.556Z,95771.53
2022-12-25T05:17:07.965Z,95772.03
2022-12-25T05:19:06.125Z,95768.19
2022-12-25T05:21:05.618Z,95779.03
2022-12-25T05:23:03.876Z,95782.69
2022-12-25T05:25:03.633Z,95769.63
2022-12-25T05:27:01.836Z,95764.59
2022-12-25T05:29:00.672Z,95783.00
2022-12-25T05:30:59.012Z,95783.53
2022-12-25T05:32:57.143Z,95783.09
2022-12-25T05:34:55.444Z,95787.31
2022-12-25T05:36:53.657Z,95792.28
2022-12-25T05:38:52.307Z,95786.84
2022-12-25T05:40:52.743Z,95796.66
2022-12-25T05:42:50.828Z,95798.53
2022-12-25T05:44:49.072Z,95796.91
2022-12-25T05:46:47.493Z,95791.50
2022-12-25T05:48:46.038Z,95799.94
2022-12-25T05:50:44.654Z,95796.16
2022-12-25T05:52:42.951Z,95802.59
2022-12-25T05:54:41.364Z,95810.75
2022-12-25T05:56:41.050Z,95804.84
2022-12-25T05:58:41.092Z,95804.13
2022-12-25T06:00:39.725Z,95801.56
2022-12-25T06:02:38.018Z,95813.59
2022-12-25T06:04:36.253Z,95803.81
2022-12-25T06:06:34.581Z,95812.31
2022-12-25T06:08:34.334Z,95814.69
2022-12-25T06:10:32.567Z,95814.19
2022-12-25T06:12:32.164Z,95820.31
2022-12-25T06:14:30.311Z,95814.84
2022-12-25T06:16:31.719Z,95815.75
2022-12-25T06:18:37.136Z,95817.25
2022-12-25T06:20:35.477Z,95823.38
2022-12-25T06:22:35.306Z,95833.22
2022-12-25T06:24:33.547Z,95836.91
2022-12-25T06:26:31.848Z,95834.19
2022-12-25T06:28:31.388Z,95833.72
2022-12-25T06:30:29.559Z,95844.22
2022-12-25T06:32:27.796Z,95838.09
2022-12-25T06:34:26.121Z,95843.94
2022-12-25T06:36:26.105Z,95849.28
2022-12-25T06:38:24.430Z,95852.59
2022-12-25T06:40:22.688Z,95846.03
2022-12-25T06:42:20.879Z,95852.94
2022-12-25T06:44:20.396Z,95854.94
2022-12-25T06:46:19.215Z,95854.03
2022-12-25T06:48:17.481Z,95853.50
2022-12-25T06:50:15.703Z,95865.72
2022-12-25T06:52:13.839Z,95872.59
2022-12-25T06:54:11.991Z,95872.09
2022-12-25T06:56:15.562Z,95872.19
2022-12-25T06:58:13.787Z,95876.81
2022-12-25T07:00:14.439Z,95873.28
2022-12-25T07:02:19.500Z,95873.78
2022-12-25T07:04:22.305Z,95882.50
2022-12-25T07:06:20.666Z,95893.28
2022-12-25T07:08:18.925Z,95889.38
2022-12-25T07:10:17.206Z,95893.78
2022-12-25T07:12:17.614Z,95888.53
2022-12-25T07:14:23.370Z,95890.44
2022-12-25T07:16:24.155Z,95895.88
2022-12-25T07:18:22.506Z,95893.41
2022-12-25T07:20:20.669Z,95894.81
2022-12-25T07:22:18.926Z,95893.94
2022-12-25T07:24:20.691Z,95908.72
2022-12-25T07:26:19.058Z,95912.47
2022-12-25T07:28:17.221Z,95903.31
2022-12-25T07:30:15.677Z,95901.06
2022-12-25T07:32:15.410Z,95901.53
2022-12-25T07:34:13.603Z,95914.03
2022-12-25T07:36:13.359Z,95915.78
2022-12-25T07:38:12.181Z,95913.34
2022-12-25T07:40:11.552Z,95917.75
2022-12-25T07:42:09.824Z,95912.59
2022-12-25T07:44:09.258Z,95920.97
2022-12-25T07:46:07.619Z,95930.88
2022-12-25T07:48:11.920Z,95930.81
2022-12-25T07:50:13.554Z,95925.56
2022-12-25T07:52:11.907Z,95931.66
2022-12-25T07:54:10.176Z,95926.88
2022-12-25T07:56:11.566Z,95944.78
2022-12-25T07:58:09.794Z,95934.72
2022-12-25T08:00:09.619Z,95945.28
2022-12-25T08:02:11.755Z,95943.03
2022-12-25T08:04:12.015Z,95943.66
2022-12-25T08:06:11.707Z,95948.41
2022-12-25T08:08:09.956Z,95962.34
2022-12-25T08:10:09.333Z,95946.13
2022-12-25T08:12:07.944Z,95957.06
2022-12-25T08:14:07.983Z,95951.94
2022-12-25T08:16:09.129Z,95947.41
2022-12-25T08:18:07.248Z,95939.97
2022-12-25T08:20:08.456Z,95942.81
2022-12-25T08:22:07.191Z,95940.75
2022-12-25T08:24:06.143Z,95941.50
2022-12-25T08:26:06.208Z,95944.63
2022-12-25T08:28:04.521Z,95946.34
2022-12-25T08:30:02.652Z,95928.25
2022-12-25T08:32:01.986Z,95942.47
2022-12-25T08:34:00.834Z,95931.78
2022-12-25T08:36:04.396Z,95943.66
2022-12-25T08:38:02.552Z,95932.94
2022-12-25T08:40:00.840Z,95947.72
2022-12-25T08:42:00.863Z,95949.72
2022-12-25T08:44:02.083Z,95949.66
2022-12-25T08:46:00.279Z,95949.41
2022-12-25T08:48:02.105Z,95948.06
2022-12-25T08:50:00.354Z,95944.63
2022-12-25T08:52:00.096Z,95934.47
2022-12-25T08:54:01.043Z,95928.31
2022-12-25T08:56:00.329Z,95924.88
2022-12-25T08:57:58.545Z,95937.06
2022-12-25T08:59:56.996Z,95925.56
2022-12-25T09:01:55.409Z,95927.84
2022-12-25T09:03:53.649Z,95925.34
2022-12-25T09:05:51.981Z,95930.22
2022-12-25T09:07:51.677Z,95937.13
2022-12-25T09:09:49.855Z,95936.91
2022-12-25T09:11:50.071Z,95940.69
2022-12-25T09:13:48.637Z,95929.00
2022-12-25T09:15:46.819Z,95929.13
2022-12-25T09:17:45.045Z,95937.38
2022-12-25T09:19:43.211Z,95934.03
2022-12-25T09:21:41.371Z,95932.66
2022-12-25T09:23:41.448Z,95938.19
2022-12-25T09:25:39.652Z,95936.78
2022-12-25T09:27:37.956Z,95931.53
2022-12-25T09:29:36.111Z,95935.56
2022-12-25T09:31:34.935Z,95925.69
2022-12-25T09:33:33.705Z,95929.84
2022-12-25T09:35:32.053Z,95926.44
2022-12-25T09:37:30.679Z,95927.84
2022-12-25T09:39:30.219Z,95931.63
2022-12-25T09:41:32.847Z,95927.13
2022-12-25T09:43:34.707Z,95926.28
2022-12-25T09:45:36.934Z,95917.97
2022-12-25T09:47:39.710Z,95928.03
2022-12-25T09:49:42.911Z,95930.22
2022-12-25T09:51:43.403Z,95926.88
2022-12-25T09:53:47.194Z,95925.56
2022-12-25T09:55:54.125Z,95915.69
2022-12-25T09:57:55.546Z,95906.47
2022-12-25T09:59:56.121Z,95919.88
2022-12-25T10:02:31.073Z,95914.81
2022-12-25T10:04:52.860Z,95917.81
2022-12-25T10:07:01.551Z,95912.41
2022-12-25T10:09:23.023Z,95911.09
2022-12-25T10:11:31.462Z,95906.72
2022-12-25T10:13:47.939Z,95903.78
2022-12-25T10:15:55.888Z,95907.84
2022-12-25T10:18:22.343Z,95906.06
2022-12-25T10:20:34.774Z,95906.31
2022-12-25T10:22:38.978Z,95911.19
2022-12-25T10:24:41.949Z,95907.75
2022-12-25T10:26:41.803Z,95911.59
2022-12-25T10:28:44.432Z,95907.31
2022-12-25T10:30:45.762Z,95906.00
2022-12-25T10:32:45.386Z,95906.34
2022-12-25T10:34:43.912Z,95903.31
2022-12-25T10:36:45.082Z,95903.88
2022-12-25T10:38:43.354Z,95900.88
2022-12-25T10:40:54.903Z,95899.72
2022-12-25T10:43:02.641Z,95903.88
2022-12-25T10:45:02.525Z,95900.66
2022-12-25T10:47:02.692Z,95902.84
2022-12-25T10:49:04.007Z,95909.69
2022-12-25T10:51:02.857Z,95903.41
2022-12-25T10:53:04.421Z,95906.91
2022-12-25T10:55:12.137Z,95907.22
2022-12-25T10:57:17.286Z,95910.91
2022-12-25T10:59:16.852Z,95896.78
2022-12-25T11:01:15.578Z,95900.69
2022-12-25T11:03:23.343Z,95903.56
2022-12-25T11:05:28.101Z,95898.22
2022-12-25T11:07:27.699Z,95895.78
2022-12-25T11:09:25.953Z,95897.34
2022-12-25T11:11:25.246Z,95899.53
2022-12-25T11:13:26.995Z,95902.50
2022-12-25T11:15:36.085Z,95897.66
2022-12-25T11:17:34.335Z,95898.59
2022-12-25T11:19:34.243Z,95902.38
2022-12-25T11:21:34.025Z,95895.69
2022-12-25T11:23:33.917Z,95900.19
2022-12-25T11:25:32.048Z,95907.25
2022-12-25T11:27:33.692Z,95913.13
2022-12-25T11:29:38.350Z,95911.94
2022-12-25T11:31:42.536Z,95911.06
2022-12-25T11:33:46.927Z,95922.22
2022-12-25T11:35:47.774Z,95917.84
2022-12-25T11:37:49.229Z,95916.75
2022-12-25T11:39:47.663Z,95920.72
2022-12-25T11:41:47.608Z,95932.31
2022-12-25T11:43:50.847Z,95926.81
2022-12-25T11:45:53.821Z,95932.72
2022-12-25T11:47:57.518Z,95927.88
2022-12-25T11:50:01.402Z,95934.09
2022-12-25T11:51:59.841Z,95926.44
2022-12-25T11:54:02.540Z,95938.19
2022-12-25T11:56:04.249Z,95925.25
2022-12-25T11:58:07.580Z,95923.50
2022-12-25T12:00:10.414Z,95923.13
2022-12-25T12:02:25.157Z,95923.81
2022-12-25T12:04:31.781Z,95924.09
2022-12-25T12:06:39.365Z,95934.34
2022-12-25T12:08:38.694Z,95928.59
2022-12-25T12:10:48.436Z,95927.41
2022-12-25T12:12:55.054Z,95922.03
2022-12-25T12:15:01.672Z,95919.41
2022-12-25T12:17:01.138Z,95917.13
2022-12-25T12:18:59.354Z,95919.91
2022-12-25T12:21:08.215Z,95919.16
2022-12-25T12:23:16.359Z,95923.09
2022-12-25T12:25:19.073Z,95921.94
2022-12-25T12:27:25.441Z,95926.84
2022-12-25T12:29:26.471Z,95932.09
2022-12-25T12:31:25.649Z,95926.22
2022-12-25T12:33:25.249Z,95932.81
2022-12-25T12:35:27.172Z,95931.59
2022-12-25T12:37:31.791Z,95939.78
2022-12-25T12:39:37.854Z,95927.66
2022-12-25T12:41:46.659Z,95934.25
2022-12-25T12:43:48.919Z,95930.66
2022-12-25T12:45:47.829Z,95931.75
2022-12-25T12:47:50.267Z,95934.84
2022-12-25T12:49:59.415Z,95943.72
2022-12-25T12:52:07.406Z,95936.16
2022-12-25T12:54:21.699Z,95944.78
2022-12-25T12:56:21.568Z,95949.34
2022-12-25T12:58:30.916Z,95952.06
2022-12-25T13:00:41.320Z,95951.00
2022-12-25T13:03:06.078Z,95947.28
2022-12-25T13:05:06.974Z,95952.41
2022-12-25T13:07:17.762Z,95949.78
2022-12-25T13:09:32.406Z,95951.09
2022-12-25T13:11:33.385Z,95947.84
2022-12-25T13:13:37.010Z,95946.94
2022-12-25T13:15:36.607Z,95949.81
2022-12-25T13:17:34.983Z,95941.66
2022-12-25T13:19:33.342Z,95944.63
2022-12-25T13:21:31.888Z,95942.31
2022-12-25T13:23:32.709Z,95934.91
2022-12-25T13:25:32.283Z,95941.97
2022-12-25T13:27:31.883Z,95941.34
2022-12-25T13:29:31.483Z,95941.81
2022-12-25T13:31:31.532Z,95949.47
2022-12-25T13:33:30.064Z,95939.88
2022-12-25T13:35:28.847Z,95945.41
2022-12-25T13:37:29.674Z,95953.16
2022-12-25T13:39:28.268Z,95951.09
2022-12-25T13:41:50.361Z,95947.03
2022-12-25T13:43:54.214Z,95947.03
2022-12-25T13:45:55.751Z,95947.97
2022-12-25T13:47:55.807Z,95955.13
2022-12-25T13:49:56.424Z,95946.66
2022-12-25T13:52:10.914Z,95952.28
2022-12-25T13:54:12.802Z,95960.00
2022-12-25T13:56:16.415Z,95953.41
2022-12-25T13:58:24.123Z,95958.06
2022-12-25T14:00:25.758Z,95956.69
2022-12-25T14:02:30.447Z,95949.56
2022-12-25T14:04:29.730Z,95956.34
2022-12-25T14:06:30.013Z,95952.19
2022-12-25T14:08:31.699Z,95950.00
2022-12-25T14:10:34.122Z,95960.97
2022-12-25T14:12:34.058Z,95956.78
2022-12-25T14:14:33.861Z,95959.94
2022-12-25T14:16:32.313Z,95956.69
2022-12-25T14:18:31.933Z,95955.97
2022-12-25T14:20:32.004Z,95952.63
2022-12-25T14:22:32.686Z,95960.16
2022-12-25T14:24:33.415Z,95962.28
2022-12-25T14:26:33.719Z,95957.25
2022-12-25T14:28:34.750Z,95964.22
2022-12-25T14:30:34.766Z,95962.53
2022-12-25T14:32:45.068Z,95958.50
2022-12-25T14:34:46.309Z,95966.72
2022-12-25T14:36:44.679Z,95967.47
2022-12-25T14:38:44.266Z,95969.69
2022-12-25T14:40:45.469Z,95966.53
2022-12-25T14:42:43.638Z,95969.69
2022-12-25T14:44:42.257Z,95972.81
2022-12-25T14:46:41.863Z,95968.75
2022-12-25T14:48:40.343Z,95972.28
2022-12-25T14:50:43.527Z,95977.19
2022-12-25T14:52:45.373Z,95978.84
2022-12-25T14:54:47.973Z,95966.41
2022-12-25T14:56:48.547Z,95967.25
2022-12-25T14:58:51.604Z,95978.25
2022-12-25T15:01:25.533Z,95974.72
2022-12-25T15:03:28.779Z,95976.06
2022-12-25T15:05:33.788Z,95981.66
2022-12-25T15:07:32.851Z,95978.66
2022-12-25T15:09:31.189Z,95980.97
2022-12-25T15:11:30.149Z,95971.84
2022-12-25T15:13:29.058Z,95966.13
2022-12-25T15:15:27.390Z,95974.03
2022-12-25T15:17:27.874Z,95979.38
2022-12-25T15:19:34.777Z,95982.78
2022-12-25T15:21:37.223Z,95989.88
2022-12-25T15:23:35.615Z,95997.72
2022-12-25T15:25:33.785Z,95993.34
2022-12-25T15:27:32.089Z,95998.06
2022-12-25T15:30:09.031Z,95986.19
2022-12-25T15:31:49.140Z,95989.75
2022-12-25T15:33:47.318Z,96000.63
2022-12-25T15:35:46.939Z,95999.88
2022-12-25T15:37:45.429Z,96001.94
2022-12-25T15:39:43.845Z,96005.34
2022-12-25T15:41:59.807Z,96010.31
2022-12-25T15:43:58.156Z,96016.56
2022-12-25T15:45:56.300Z,96014.41
2022-12-25T15:47:54.895Z,96019.47
2022-12-25T15:49:53.048Z,96016.00
2022-12-25T15:51:52.661Z,96016.56
2022-12-25T15:53:50.895Z,96018.63
2022-12-25T15:55:49.280Z,96020.66
2022-12-25T15:57:49.398Z,96018.63
2022-12-25T15:59:47.618Z,96030.38
2022-12-25T16:01:49.106Z,96035.91
2022-12-25T16:03:47.938Z,96031.84
2022-12-25T16:05:46.106Z,96033.81
2022-12-25T16:07:45.751Z,96029.03
2022-12-25T16:09:44.112Z,96040.50
2022-12-25T16:11:42.282Z,96040.78
2022-12-25T16:13:40.582Z,96042.63
2022-12-25T16:15:39.093Z,96032.59
2022-12-25T16:17:37.466Z,96036.88
2022-12-25T16:19:35.651Z,96035.38
2022-12-25T16:21:39.853Z,96038.94
2022-12-25T16:23:39.507Z,96031.81
2022-12-25T16:25:37.674Z,96032.84
2022-12-25T16:27:35.878Z,96041.72
2022-12-25T16:29:34.071Z,96032.00
2022-12-25T16:31:32.528Z,96042.84
2022-12-25T16:33:30.866Z,96040.13
2022-12-25T16:35:29.588Z,96038.50
2022-12-25T16:37:28.298Z,96041.13
2022-12-25T16:39:27.879Z,96038.34
2022-12-25T16:41:26.146Z,96046.34
2022-12-25T16:43:24.569Z,96050.31
2022-12-25T16:45:22.846Z,96046.50
2022-12-25T16:47:21.202Z,96045.66
2022-12-25T16:49:19.483Z,96052.91
2022-12-25T16:51:19.785Z,96053.69
2022-12-25T16:53:18.077Z,96069.03
2022-12-25T16:55:17.644Z,96071.06
2022-12-25T16:57:15.880Z,96066.94
2022-12-25T16:59:14.149Z,96075.13
2022-12-25T17:01:13.308Z,96071.66
2022-12-25T17:03:11.692Z,96075.13
2022-12-25T17:05:10.717Z,96071.78
2022-12-25T17:07:09.072Z,96072.00
2022-12-25T17:09:07.703Z,96077.13
2022-12-25T17:11:07.536Z,96071.72
2022-12-25T17:13:05.830Z,96084.91
2022-12-25T17:15:04.083Z,96082.63
2022-12-25T17:17:02.488Z,96083.19
2022-12-25T17:19:02.574Z,96085.63
2022-12-25T17:21:00.758Z,96092.38
2022-12-25T17:22:59.611Z,96081.69
2022-12-25T17:24:57.917Z,96089.63
2022-12-25T17:26:57.594Z,96098.09
2022-12-25T17:28:57.302Z,96096.31
2022-12-25T17:30:55.536Z,96093.53
2022-12-25T17:32:55.177Z,96094.88
2022-12-25T17:34:53.599Z,96105.59
2022-12-25T17:36:51.784Z,96103.09
2022-12-25T17:38:50.435Z,96101.94
2022-12-25T17:40:56.664Z,96117.16
2022-12-25T17:42:56.455Z,96113.03
2022-12-25T17:44:54.645Z,96107.03
2022-12-25T17:46:53.214Z,96108.97
2022-12-25T17:48:52.531Z,96121.19
2022-12-25T17:50:50.650Z,96112.53
2022-12-25T17:52:48.885Z,96110.16
2022-12-25T17:54:47.216Z,96107.81
2022-12-25T17:56:45.428Z,96113.03
2022-12-25T17:58:45.755Z,96113.88
2022-12-25T18:00:44.044Z,96109.06
2022-12-25T18:02:43.890Z,96106.84
2022-12-25T18:04:42.358Z,96103.56
2022-12-25T18:06:40.738Z,96106.94
2022-12-25T18:08:39.915Z,96107.09
2022-12-25T18:10:38.991Z,96113.53
2022-12-25T18:12:37.466Z,96123.31
2022-12-25T18:14:37.212Z,96110.41
2022-12-25T18:16:38.080Z,96118.31
2022-12-25T18:18:36.665Z,96116.88
2022-12-25T18:20:39.947Z,96120.41
2022-12-25T18:22:38.733Z,96122.16
2022-12-25T18:24:36.942Z,96121.50
2022-12-25T18:26:36.002Z,96111.28
2022-12-25T18:28:34.448Z,96119.72
2022-12-25T18:30:34.126Z,96118.13
2022-12-25T18:32:32.469Z,96112.91
2022-12-25T18:34:30.656Z,96125.34
2022-12-25T18:36:30.087Z,96123.00
2022-12-25T18:38:28.977Z,96129.16
2022-12-25T18:40:27.433Z,96120.69
2022-12-25T18:42:40.664Z,96122.81
2022-12-25T18:44:38.939Z,96122.34
2022-12-25T18:46:38.655Z,96126.53
2022-12-25T18:48:37.831Z,96120.94
2022-12-25T18:50:37.045Z,96120.41
2022-12-25T18:52:49.217Z,96125.72
2022-12-25T18:54:49.512Z,96120.56
2022-12-25T18:56:53.391Z,96119.13
2022-12-25T18:58:52.017Z,96118.34
2022-12-25T19:00:50.355Z,96124.72
2022-12-25T19:02:50.326Z,96136.28
2022-12-25T19:04:48.717Z,96138.34
2022-12-25T19:06:48.110Z,96134.34
2022-12-25T19:08:46.716Z,96126.63
2022-12-25T19:10:45.542Z,96130.69
2022-12-25T19:12:43.638Z,96133.59
2022-12-25T19:14:47.526Z,96137.59
2022-12-25T19:16:46.551Z,96143.22
2022-12-25T19:18:46.590Z,96140.63
2022-12-25T19:20:44.871Z,96138.72
2022-12-25T19:22:43.129Z,96151.59
2022-12-25T19:24:41.732Z,96136.94
2022-12-25T19:26:40.147Z,96132.66
2022-12-25T19:28:39.861Z,96132.03
2022-12-25T19:30:39.294Z,96131.63
2022-12-25T19:32:37.672Z,96141.44
2022-12-25T19:34:37.503Z,96147.66
2022-12-25T19:36:36.180Z,96145.19
2022-12-25T19:38:34.535Z,96145.31
2022-12-25T19:40:32.925Z,96140.25
2022-12-25T19:42:31.264Z,96160.34
2022-12-25T19:44:29.576Z,96149.84
2022-12-25T19:46:29.485Z,96159.63
2022-12-25T19:48:27.756Z,96162.59
2022-12-25T19:50:28.641Z,96162.78
2022-12-25T19:52:26.934Z,96160.28
2022-12-25T19:54:25.155Z,96159.56
2022-12-25T19:56:23.439Z,96152.69
2022-12-25T19:58:22.269Z,96150.25
2022-12-25T20:00:20.570Z,96153.22
2022-12-25T20:02:19.140Z,96146.59
2022-12-25T20:04:18.330Z,96140.19
2022-12-25T20:06:22.035Z,96141.47
2022-12-25T20:08:20.730Z,96146.72
2022-12-25T20:10:18.912Z,96140.59
2022-12-25T20:12:17.179Z,96134.41
2022-12-25T20:14:17.248Z,96139.56
2022-12-25T20:16:15.809Z,96137.81
2022-12-25T20:18:14.018Z,96141.66
2022-12-25T20:20:13.079Z,96139.41
2022-12-25T20:22:12.734Z,96137.00
2022-12-25T20:24:11.197Z,96135.47
2022-12-25T20:26:11.564Z,96144.31
2022-12-25T20:28:10.326Z,96130.31
2022-12-25T20:30:09.299Z,96133.28
2022-12-25T20:32:07.588Z,96135.13
2022-12-25T20:34:08.451Z,96141.56
2022-12-25T20:36:07.907Z,96144.56
2022-12-25T20:38:07.663Z,96141.34
2022-12-25T20:40:09.505Z,96149.91
2022-12-25T20:42:08.122Z,96142.69
2022-12-25T20:44:08.705Z,96142.34
2022-12-25T20:46:07.719Z,96144.16
2022-12-25T20:48:06.364Z,96138.94
2022-12-25T20:50:05.192Z,96152.16
2022-12-25T20:52:05.861Z,96151.31
2022-12-25T20:54:09.672Z,96156.66
2022-12-25T20:56:10.079Z,96155.09
2022-12-25T20:58:08.352Z,96154.53
2022-12-25T21:00:09.630Z,96157.31
2022-12-25T21:02:09.804Z,96166.31
2022-12-25T21:04:27.893Z,96162.25
2022-12-25T21:06:26.431Z,96160.84
2022-12-25T21:08:26.341Z,96161.09
2022-12-25T21:10:25.992Z,96157.75
2022-12-25T21:12:24.282Z,96165.50
2022-12-25T21:14:22.390Z,96166.56
2022-12-25T21:16:23.238Z,96178.13
2022-12-25T21:18:23.905Z,96170.56
2022-12-25T21:20:22.081Z,96173.50
2022-12-25T21:22:20.304Z,96163.44
2022-12-25T21:24:18.524Z,96172.22
2022-12-25T21:26:20.777Z,96168.47
2022-12-25T21:28:18.858Z,96160.47
2022-12-25T21:30:17.328Z,96165.72
2022-12-25T21:32:33.272Z,96165.06
2022-12-25T21:34:31.769Z,96167.13
2022-12-25T21:36:32.739Z,96165.69
2022-12-25T21:38:32.421Z,96169.16
2022-12-25T21:40:30.689Z,96172.81
2022-12-25T21:42:30.351Z,96171.13
2022-12-25T21:44:28.569Z,96168.59
2022-12-25T21:46:27.948Z,96169.44
2022-12-25T21:48:26.241Z,96173.94
2022-12-25T21:50:42.059Z,96166.28
2022-12-25T21:52:40.131Z,96171.59
2022-12-25T21:54:38.530Z,96173.53
2022-12-25T21:56:43.994Z,96174.66
2022-12-25T21:58:44.376Z,96170.25
2022-12-25T22:00:42.531Z,96163.44
2022-12-25T22:02:40.741Z,96160.94
2022-12-25T22:04:39.651Z,96163.72
2022-12-25T22:06:55.687Z,96164.94
2022-12-25T22:08:54.049Z,96157.47
2022-12-25T22:10:52.198Z,96159.28
2022-12-25T22:13:08.128Z,96162.84
2022-12-25T22:15:09.865Z,96151.78
2022-12-25T22:17:25.869Z,96157.66
2022-12-25T22:19:43.743Z,96159.13
2022-12-25T22:21:41.985Z,96159.34
2022-12-25T22:23:40.169Z,96154.38
2022-12-25T22:25:38.432Z,96161.38
2022-12-25T22:27:38.811Z,96159.91
2022-12-25T22:29:37.406Z,96170.13
2022-12-25T22:31:42.621Z,96163.28
2022-12-25T22:33:44.516Z,96160.03
2022-12-25T22:35:42.885Z,96156.69
2022-12-25T22:37:41.355Z,96165.44
2022-12-25T22:39:39.785Z,96162.06
2022-12-25T22:41:38.638Z,96163.81
2022-12-25T22:44:14.487Z,96159.47
2022-12-25T22:45:55.145Z,96164.69
2022-12-25T22:47:54.709Z,96171.75
2022-12-25T22:49:53.637Z,96166.66
2022-12-25T22:51:52.409Z,96166.78
2022-12-25T22:53:50.992Z,96166.84
2022-12-25T22:55:50.485Z,96171.06
2022-12-25T22:57:49.144Z,96166.44
2022-12-25T22:59:47.394Z,96167.28
2022-12-25T23:01:45.829Z,96168.31
2022-12-25T23:03:45.667Z,96166.84
2022-12-25T23:05:44.098Z,96170.44
2022-12-25T23:07:42.931Z,96171.38
2022-12-25T23:09:41.324Z,96180.16
2022-12-25T23:11:39.669Z,96183.59
2022-12-25T23:13:56.073Z,96185.19
2022-12-25T23:15:54.424Z,96186.06
2022-12-25T23:18:10.001Z,96175.81
2022-12-25T23:20:34.097Z,96171.72
2022-12-25T23:22:49.742Z,96170.88
2022-12-25T23:25:05.419Z,96159.88
2022-12-25T23:27:04.891Z,96150.72
2022-12-25T23:29:21.476Z,96160.38
2022-12-25T23:31:21.550Z,96165.53
2022-12-25T23:33:19.817Z,96169.97
2022-12-25T23:35:19.409Z,96176.28
2022-12-25T23:37:17.845Z,96177.22
2022-12-25T23:39:16.048Z,96173.84
2022-12-25T23:41:14.295Z,96172.88
2022-12-25T23:43:12.705Z,96179.59
2022-12-25T23:45:13.891Z,96176.91
2022-12-25T23:47:12.342Z,96183.88
2022-12-25T23:49:11.685Z,96188.22
2022-12-25T23:51:11.286Z,96190.06
2022-12-25T23:53:10.522Z,96193.81
2022-12-25T23:55:09.858Z,96194.97